sensor_id;sensor_type;location;lat;lon;timestamp;pressure;altitude;pressure_sealevel;temperature;humidity
71465;BME280;59274;49.874;9.154;2023-04-10T00:01:37;101066.09;;;4.49;100.00
71465;BME280;59274;49.874;9.154;2023-04-10T00:04:03;101062.16;;;4.46;100.00
71465;BME280;59274;49.874;9.154;2023-04-10T00:06:29;101063.41;;;4.49;100.00
71465;BME280;59274;49.874;9.154;2023-04-10T00:08:56;101070.88;;;4.52;100.00
71465;BME280;59274;49.874;9.154;2023-04-10T00:11:22;101063.28;;;4.54;100.00
71465;BME280;59274;49.874;9.154;2023-04-10T00:13:47;101068.78;;;4.49;100.00
71465;BME280;59274;49.874;9.154;2023-04-10T00:16:12;101058.69;;;4.54;100.00
71465;BME280;59274;49.874;9.154;2023-04-10T00:18:38;101055.03;;;4.50;100.00
71465;BME280;59274;49.874;9.154;2023-04-10T00:21:04;101058.97;;;4.44;100.00
71465;BME280;59274;49.874;9.154;2023-04-10T00:23:30;101044.56;;;4.40;100.00
71465;BME280;59274;49.874;9.154;2023-04-10T00:25:59;101053.53;;;4.36;100.00
71465;BME280;59274;49.874;9.154;2023-04-10T00:28:25;101053.69;;;4.30;100.00
71465;BME280;59274;49.874;9.154;2023-04-10T00:30:50;101051.94;;;4.26;100.00
71465;BME280;59274;49.874;9.154;2023-04-10T00:33:16;101057.63;;;4.24;100.00
71465;BME280;59274;49.874;9.154;2023-04-10T00:35:41;101054.13;;;4.24;100.00
71465;BME280;59274;49.874;9.154;2023-04-10T00:38:07;101058.22;;;4.21;100.00
71465;BME280;59274;49.874;9.154;2023-04-10T00:40:32;101059.16;;;4.17;100.00
71465;BME280;59274;49.874;9.154;2023-04-10T00:42:58;101066.56;;;4.11;100.00
71465;BME280;59274;49.874;9.154;2023-04-10T00:45:23;101071.16;;;4.11;100.00
71465;BME280;59274;49.874;9.154;2023-04-10T00:47:50;101071.94;;;4.11;100.00
71465;BME280;59274;49.874;9.154;2023-04-10T00:50:16;101072.25;;;4.10;100.00
71465;BME280;59274;49.874;9.154;2023-04-10T00:52:41;101069.06;;;4.08;100.00
71465;BME280;59274;49.874;9.154;2023-04-10T00:55:07;101079.66;;;4.04;100.00
71465;BME280;59274;49.874;9.154;2023-04-10T00:57:33;101082.00;;;4.06;100.00
71465;BME280;59274;49.874;9.154;2023-04-10T00:59:59;101079.97;;;4.03;100.00
71465;BME280;59274;49.874;9.154;2023-04-10T01:02:25;101083.53;;;3.98;100.00
71465;BME280;59274;49.874;9.154;2023-04-10T01:04:51;101087.00;;;3.90;100.00
71465;BME280;59274;49.874;9.154;2023-04-10T01:07:34;101084.31;;;3.90;100.00
71465;BME280;59274;49.874;9.154;2023-04-10T01:13:00;101089.25;;;3.74;100.00
71465;BME280;59274;49.874;9.154;2023-04-10T01:15:41;101092.09;;;3.78;100.00
71465;BME280;59274;49.874;9.154;2023-04-10T01:20:41;101089.63;;;3.81;100.00
71465;BME280;59274;49.874;9.154;2023-04-10T01:25:45;101097.81;;;3.76;100.00
71465;BME280;59274;49.874;9.154;2023-04-10T01:30:49;101094.41;;;3.71;100.00
71465;BME280;59274;49.874;9.154;2023-04-10T01:33:19;101091.38;;;3.64;100.00
71465;BME280;59274;49.874;9.154;2023-04-10T01:35:48;101097.22;;;3.66;100.00
71465;BME280;59274;49.874;9.154;2023-04-10T01:38:19;101086.53;;;3.52;100.00
71465;BME280;59274;49.874;9.154;2023-04-10T01:40:49;101093.81;;;3.51;100.00
71465;BME280;59274;49.874;9.154;2023-04-10T01:43:16;101087.03;;;3.54;100.00
71465;BME280;59274;49.874;9.154;2023-04-10T01:45:43;101082.75;;;3.53;100.00
71465;BME280;59274;49.874;9.154;2023-04-10T01:48:11;101077.91;;;3.41;100.00
71465;BME280;59274;49.874;9.154;2023-04-10T01:50:37;101078.41;;;3.43;100.00
71465;BME280;59274;49.874;9.154;2023-04-10T01:53:05;101080.00;;;3.44;100.00
71465;BME280;59274;49.874;9.154;2023-04-10T01:55:32;101076.66;;;3.39;100.00
71465;BME280;59274;49.874;9.154;2023-04-10T01:58:01;101076.44;;;3.35;100.00
71465;BME280;59274;49.874;9.154;2023-04-10T02:00:28;101075.97;;;3.33;100.00
71465;BME280;59274;49.874;9.154;2023-04-10T02:02:54;101080.22;;;3.34;100.00
71465;BME280;59274;49.874;9.154;2023-04-10T02:05:20;101089.56;;;3.37;100.00
71465;BME280;59274;49.874;9.154;2023-04-10T02:07:58;101081.94;;;3.30;100.00
71465;BME280;59274;49.874;9.154;2023-04-10T02:10:40;101072.50;;;3.33;100.00
71465;BME280;59274;49.874;9.154;2023-04-10T02:13:10;101077.06;;;3.32;100.00
71465;BME280;59274;49.874;9.154;2023-04-10T02:15:41;101079.75;;;3.32;100.00
71465;BME280;59274;49.874;9.154;2023-04-10T02:18:09;101080.75;;;3.23;100.00
71465;BME280;59274;49.874;9.154;2023-04-10T02:20:35;101083.31;;;3.28;100.00
71465;BME280;59274;49.874;9.154;2023-04-10T02:23:01;101090.41;;;3.24;100.00
71465;BME280;59274;49.874;9.154;2023-04-10T02:25:33;101082.66;;;3.22;100.00
71465;BME280;59274;49.874;9.154;2023-04-10T02:28:05;101086.81;;;3.28;100.00
71465;BME280;59274;49.874;9.154;2023-04-10T02:30:31;101083.44;;;3.23;100.00
71465;BME280;59274;49.874;9.154;2023-04-10T02:32:57;101081.84;;;3.22;100.00
71465;BME280;59274;49.874;9.154;2023-04-10T02:35:23;101076.00;;;3.20;100.00
71465;BME280;59274;49.874;9.154;2023-04-10T02:37:48;101072.63;;;3.14;100.00
71465;BME280;59274;49.874;9.154;2023-04-10T02:40:15;101063.47;;;3.15;100.00
71465;BME280;59274;49.874;9.154;2023-04-10T02:42:41;101064.56;;;3.14;100.00
71465;BME280;59274;49.874;9.154;2023-04-10T02:45:07;101065.97;;;3.11;100.00
71465;BME280;59274;49.874;9.154;2023-04-10T02:47:33;101063.59;;;3.10;100.00
71465;BME280;59274;49.874;9.154;2023-04-10T02:49:58;101062.00;;;3.09;100.00
71465;BME280;59274;49.874;9.154;2023-04-10T02:52:23;101055.75;;;3.00;100.00
71465;BME280;59274;49.874;9.154;2023-04-10T02:54:49;101051.00;;;2.97;100.00
71465;BME280;59274;49.874;9.154;2023-04-10T02:57:15;101047.13;;;3.03;100.00
71465;BME280;59274;49.874;9.154;2023-04-10T02:59:40;101050.88;;;3.02;100.00
71465;BME280;59274;49.874;9.154;2023-04-10T03:02:06;101048.31;;;2.97;100.00
71465;BME280;59274;49.874;9.154;2023-04-10T03:04:32;101046.13;;;2.85;100.00
71465;BME280;59274;49.874;9.154;2023-04-10T03:06:57;101049.53;;;2.91;100.00
71465;BME280;59274;49.874;9.154;2023-04-10T03:09:23;101047.13;;;2.89;100.00
71465;BME280;59274;49.874;9.154;2023-04-10T03:11:49;101043.03;;;2.92;100.00
71465;BME280;59274;49.874;9.154;2023-04-10T03:14:17;101044.56;;;2.98;100.00
71465;BME280;59274;49.874;9.154;2023-04-10T03:16:43;101037.28;;;2.98;100.00
71465;BME280;59274;49.874;9.154;2023-04-10T03:19:08;101041.06;;;2.97;100.00
71465;BME280;59274;49.874;9.154;2023-04-10T03:21:33;101045.44;;;2.93;100.00
71465;BME280;59274;49.874;9.154;2023-04-10T03:23:59;101042.44;;;2.95;100.00
71465;BME280;59274;49.874;9.154;2023-04-10T03:26:25;101036.59;;;2.93;100.00
71465;BME280;59274;49.874;9.154;2023-04-10T03:28:50;101036.00;;;2.96;100.00
71465;BME280;59274;49.874;9.154;2023-04-10T03:31:19;101039.19;;;2.98;100.00
71465;BME280;59274;49.874;9.154;2023-04-10T03:33:44;101034.78;;;3.02;100.00
71465;BME280;59274;49.874;9.154;2023-04-10T03:36:10;101039.97;;;2.98;100.00
71465;BME280;59274;49.874;9.154;2023-04-10T03:38:36;101032.22;;;2.97;100.00
71465;BME280;59274;49.874;9.154;2023-04-10T03:41:01;101026.47;;;2.90;100.00
71465;BME280;59274;49.874;9.154;2023-04-10T03:43:28;101023.00;;;2.89;100.00
71465;BME280;59274;49.874;9.154;2023-04-10T03:45:53;101024.78;;;2.94;100.00
71465;BME280;59274;49.874;9.154;2023-04-10T03:48:19;101025.19;;;2.87;100.00
71465;BME280;59274;49.874;9.154;2023-04-10T03:50:45;101027.06;;;2.87;100.00
71465;BME280;59274;49.874;9.154;2023-04-10T03:53:10;101020.91;;;2.86;100.00
71465;BME280;59274;49.874;9.154;2023-04-10T03:55:35;101016.84;;;2.89;100.00
71465;BME280;59274;49.874;9.154;2023-04-10T03:58:03;101025.28;;;2.82;100.00
71465;BME280;59274;49.874;9.154;2023-04-10T04:00:28;101022.50;;;2.87;100.00
71465;BME280;59274;49.874;9.154;2023-04-10T04:02:53;101021.19;;;2.85;100.00
71465;BME280;59274;49.874;9.154;2023-04-10T04:05:19;101020.72;;;2.83;100.00
71465;BME280;59274;49.874;9.154;2023-04-10T04:07:45;101013.66;;;2.87;100.00
71465;BME280;59274;49.874;9.154;2023-04-10T04:10:10;101021.28;;;2.93;100.00
71465;BME280;59274;49.874;9.154;2023-04-10T04:12:36;101016.84;;;2.89;100.00
71465;BME280;59274;49.874;9.154;2023-04-10T04:15:01;101016.53;;;2.90;100.00
71465;BME280;59274;49.874;9.154;2023-04-10T04:17:27;101010.38;;;2.90;100.00
71465;BME280;59274;49.874;9.154;2023-04-10T04:19:52;101019.22;;;2.90;100.00
71465;BME280;59274;49.874;9.154;2023-04-10T04:22:19;101011.97;;;2.91;100.00
71465;BME280;59274;49.874;9.154;2023-04-10T04:24:45;101013.88;;;2.90;100.00
71465;BME280;59274;49.874;9.154;2023-04-10T04:27:10;101020.81;;;2.91;100.00
71465;BME280;59274;49.874;9.154;2023-04-10T04:29:35;101018.13;;;2.91;100.00
71465;BME280;59274;49.874;9.154;2023-04-10T04:32:01;101023.78;;;2.90;100.00
71465;BME280;59274;49.874;9.154;2023-04-10T04:34:26;101023.88;;;2.85;100.00
71465;BME280;59274;49.874;9.154;2023-04-10T04:36:52;101020.91;;;2.86;100.00
71465;BME280;59274;49.874;9.154;2023-04-10T04:39:17;101024.13;;;2.74;100.00
71465;BME280;59274;49.874;9.154;2023-04-10T04:41:43;101019.94;;;2.68;100.00
71465;BME280;59274;49.874;9.154;2023-04-10T04:44:08;101025.91;;;2.65;100.00
71465;BME280;59274;49.874;9.154;2023-04-10T04:46:34;101023.44;;;2.69;100.00
71465;BME280;59274;49.874;9.154;2023-04-10T04:48:59;101019.53;;;2.75;100.00
71465;BME280;59274;49.874;9.154;2023-04-10T04:51:25;101023.72;;;2.67;100.00
71465;BME280;59274;49.874;9.154;2023-04-10T04:53:51;101018.88;;;2.69;100.00
71465;BME280;59274;49.874;9.154;2023-04-10T04:56:16;101022.41;;;2.79;100.00
71465;BME280;59274;49.874;9.154;2023-04-10T04:58:42;101017.53;;;2.81;100.00
71465;BME280;59274;49.874;9.154;2023-04-10T05:01:07;101014.16;;;2.89;100.00
71465;BME280;59274;49.874;9.154;2023-04-10T05:03:33;101018.00;;;2.96;100.00
71465;BME280;59274;49.874;9.154;2023-04-10T05:05:58;101025.94;;;3.01;100.00
71465;BME280;59274;49.874;9.154;2023-04-10T05:08:23;101024.44;;;3.09;100.00
71465;BME280;59274;49.874;9.154;2023-04-10T05:10:49;101021.53;;;3.19;100.00
71465;BME280;59274;49.874;9.154;2023-04-10T05:13:15;101018.59;;;3.29;100.00
71465;BME280;59274;49.874;9.154;2023-04-10T05:15:44;101022.81;;;3.44;100.00
71465;BME280;59274;49.874;9.154;2023-04-10T05:18:10;101025.75;;;3.56;100.00
71465;BME280;59274;49.874;9.154;2023-04-10T05:20:36;101028.19;;;3.66;100.00
71465;BME280;59274;49.874;9.154;2023-04-10T05:23:05;101025.31;;;3.85;100.00
71465;BME280;59274;49.874;9.154;2023-04-10T05:25:31;101038.34;;;4.00;100.00
71465;BME280;59274;49.874;9.154;2023-04-10T05:27:56;101038.16;;;4.19;100.00
71465;BME280;59274;49.874;9.154;2023-04-10T05:30:21;101035.97;;;4.29;100.00
71465;BME280;59274;49.874;9.154;2023-04-10T05:32:47;101033.63;;;4.37;100.00
71465;BME280;59274;49.874;9.154;2023-04-10T05:35:12;101030.66;;;4.47;100.00
71465;BME280;59274;49.874;9.154;2023-04-10T05:37:38;101037.19;;;4.54;100.00
71465;BME280;59274;49.874;9.154;2023-04-10T05:40:03;101042.09;;;4.61;100.00
71465;BME280;59274;49.874;9.154;2023-04-10T05:42:29;101044.16;;;4.64;100.00
71465;BME280;59274;49.874;9.154;2023-04-10T05:44:55;101043.41;;;4.72;100.00
71465;BME280;59274;49.874;9.154;2023-04-10T05:47:20;101044.22;;;4.81;100.00
71465;BME280;59274;49.874;9.154;2023-04-10T05:49:46;101050.56;;;4.94;100.00
71465;BME280;59274;49.874;9.154;2023-04-10T05:52:11;101043.63;;;5.10;100.00
71465;BME280;59274;49.874;9.154;2023-04-10T05:54:37;101048.38;;;5.22;100.00
71465;BME280;59274;49.874;9.154;2023-04-10T05:57:02;101054.41;;;5.36;100.00
71465;BME280;59274;49.874;9.154;2023-04-10T05:59:27;101053.13;;;5.50;100.00
71465;BME280;59274;49.874;9.154;2023-04-10T06:01:56;101047.75;;;5.59;100.00
71465;BME280;59274;49.874;9.154;2023-04-10T06:04:22;101048.56;;;5.68;100.00
71465;BME280;59274;49.874;9.154;2023-04-10T06:06:47;101051.06;;;5.73;100.00
71465;BME280;59274;49.874;9.154;2023-04-10T06:09:13;101050.72;;;5.83;99.79
71465;BME280;59274;49.874;9.154;2023-04-10T06:11:39;101055.81;;;5.94;99.41
71465;BME280;59274;49.874;9.154;2023-04-10T06:14:04;101053.41;;;6.01;99.18
71465;BME280;59274;49.874;9.154;2023-04-10T06:16:30;101051.94;;;6.12;99.05
71465;BME280;59274;49.874;9.154;2023-04-10T06:18:55;101047.50;;;6.16;98.39
71465;BME280;59274;49.874;9.154;2023-04-10T06:21:21;101040.19;;;6.25;97.83
71465;BME280;59274;49.874;9.154;2023-04-10T06:23:46;101043.31;;;6.36;97.38
71465;BME280;59274;49.874;9.154;2023-04-10T06:26:11;101050.91;;;6.42;96.37
71465;BME280;59274;49.874;9.154;2023-04-10T06:28:37;101045.22;;;6.35;96.07
71465;BME280;59274;49.874;9.154;2023-04-10T06:31:05;101040.78;;;6.39;95.84
71465;BME280;59274;49.874;9.154;2023-04-10T06:33:33;101045.97;;;6.44;94.34
71465;BME280;59274;49.874;9.154;2023-04-10T06:36:02;101047.06;;;6.52;93.62
71465;BME280;59274;49.874;9.154;2023-04-10T06:38:28;101049.88;;;6.55;93.83
71465;BME280;59274;49.874;9.154;2023-04-10T06:40:53;101038.94;;;6.60;92.95
71465;BME280;59274;49.874;9.154;2023-04-10T06:43:19;101031.75;;;6.64;92.94
71465;BME280;59274;49.874;9.154;2023-04-10T06:45:44;101037.44;;;6.72;93.14
71465;BME280;59274;49.874;9.154;2023-04-10T06:48:10;101029.88;;;6.86;92.96
71465;BME280;59274;49.874;9.154;2023-04-10T06:50:36;101031.81;;;7.06;92.84
71465;BME280;59274;49.874;9.154;2023-04-10T06:53:01;101020.63;;;7.16;93.42
71465;BME280;59274;49.874;9.154;2023-04-10T06:55:27;101019.09;;;7.27;93.33
71465;BME280;59274;49.874;9.154;2023-04-10T06:57:53;101025.00;;;7.41;91.07
71465;BME280;59274;49.874;9.154;2023-04-10T07:00:21;101019.66;;;7.54;90.70
71465;BME280;59274;49.874;9.154;2023-04-10T07:02:46;101028.47;;;7.63;90.33
71465;BME280;59274;49.874;9.154;2023-04-10T07:05:12;101023.75;;;7.60;88.89
71465;BME280;59274;49.874;9.154;2023-04-10T07:07:38;101032.03;;;7.55;87.72
71465;BME280;59274;49.874;9.154;2023-04-10T07:10:07;101029.22;;;7.51;88.00
71465;BME280;59274;49.874;9.154;2023-04-10T07:12:32;101019.13;;;7.60;87.96
71465;BME280;59274;49.874;9.154;2023-04-10T07:14:58;101022.41;;;7.66;87.45
71465;BME280;59274;49.874;9.154;2023-04-10T07:17:23;101014.91;;;7.83;86.67
71465;BME280;59274;49.874;9.154;2023-04-10T07:19:49;101014.50;;;7.94;86.63
71465;BME280;59274;49.874;9.154;2023-04-10T07:22:15;101018.34;;;8.05;85.41
71465;BME280;59274;49.874;9.154;2023-04-10T07:24:40;101018.94;;;8.22;85.26
71465;BME280;59274;49.874;9.154;2023-04-10T07:27:06;101015.59;;;8.38;84.66
71465;BME280;59274;49.874;9.154;2023-04-10T07:29:31;101016.16;;;8.55;84.03
71465;BME280;59274;49.874;9.154;2023-04-10T07:31:57;101013.00;;;8.66;84.27
71465;BME280;59274;49.874;9.154;2023-04-10T07:34:22;101004.72;;;8.74;83.60
71465;BME280;59274;49.874;9.154;2023-04-10T07:36:48;101014.28;;;8.96;82.51
71465;BME280;59274;49.874;9.154;2023-04-10T07:39:13;101008.53;;;8.97;81.89
71465;BME280;59274;49.874;9.154;2023-04-10T07:41:39;101009.50;;;9.17;80.52
71465;BME280;59274;49.874;9.154;2023-04-10T07:44:04;101005.06;;;9.25;81.29
71465;BME280;59274;49.874;9.154;2023-04-10T07:46:30;101000.97;;;9.43;79.78
71465;BME280;59274;49.874;9.154;2023-04-10T07:48:55;100998.78;;;9.49;78.99
71465;BME280;59274;49.874;9.154;2023-04-10T07:51:21;100998.53;;;9.54;78.11
71465;BME280;59274;49.874;9.154;2023-04-10T07:53:46;100996.53;;;9.66;79.19
71465;BME280;59274;49.874;9.154;2023-04-10T07:56:18;100993.78;;;9.78;78.25
71465;BME280;59274;49.874;9.154;2023-04-10T07:58:44;100986.00;;;9.93;75.32
71465;BME280;59274;49.874;9.154;2023-04-10T08:01:10;100988.81;;;10.12;74.73
71465;BME280;59274;49.874;9.154;2023-04-10T08:03:37;100976.47;;;10.14;74.61
71465;BME280;59274;49.874;9.154;2023-04-10T08:06:03;100980.25;;;10.26;74.55
71465;BME280;59274;49.874;9.154;2023-04-10T08:08:29;100977.81;;;10.36;72.63
71465;BME280;59274;49.874;9.154;2023-04-10T08:10:55;100982.94;;;10.57;73.94
71465;BME280;59274;49.874;9.154;2023-04-10T08:13:20;100979.66;;;10.67;72.28
71465;BME280;59274;49.874;9.154;2023-04-10T08:15:46;100975.81;;;10.68;72.07
71465;BME280;59274;49.874;9.154;2023-04-10T08:18:11;100975.63;;;10.77;70.57
71465;BME280;59274;49.874;9.154;2023-04-10T08:20:37;100981.25;;;10.87;70.13
71465;BME280;59274;49.874;9.154;2023-04-10T08:23:02;100975.97;;;10.94;68.71
71465;BME280;59274;49.874;9.154;2023-04-10T08:25:28;100978.63;;;10.91;69.08
71465;BME280;59274;49.874;9.154;2023-04-10T08:27:54;100968.91;;;10.90;67.42
71465;BME280;59274;49.874;9.154;2023-04-10T08:30:19;100984.03;;;11.07;68.99
71465;BME280;59274;49.874;9.154;2023-04-10T08:32:45;100982.59;;;11.13;68.20
71465;BME280;59274;49.874;9.154;2023-04-10T08:35:10;100977.34;;;11.23;69.28
71465;BME280;59274;49.874;9.154;2023-04-10T08:37:36;100981.16;;;11.38;66.84
71465;BME280;59274;49.874;9.154;2023-04-10T08:40:01;100963.91;;;11.50;65.91
71465;BME280;59274;49.874;9.154;2023-04-10T08:42:27;100961.59;;;11.52;65.60
71465;BME280;59274;49.874;9.154;2023-04-10T08:44:52;100964.28;;;11.71;64.37
71465;BME280;59274;49.874;9.154;2023-04-10T08:47:20;100963.06;;;11.68;65.45
71465;BME280;59274;49.874;9.154;2023-04-10T08:50:06;100950.53;;;11.83;65.43
71465;BME280;59274;49.874;9.154;2023-04-10T08:52:33;100957.19;;;11.86;63.90
71465;BME280;59274;49.874;9.154;2023-04-10T08:55:04;100941.66;;;11.86;62.32
71465;BME280;59274;49.874;9.154;2023-04-10T08:57:32;100953.81;;;11.92;63.22
71465;BME280;59274;49.874;9.154;2023-04-10T08:59:57;100947.84;;;12.09;63.60
71465;BME280;59274;49.874;9.154;2023-04-10T09:02:23;100949.63;;;12.21;64.25
71465;BME280;59274;49.874;9.154;2023-04-10T09:04:52;100933.38;;;12.28;64.58
71465;BME280;59274;49.874;9.154;2023-04-10T09:07:19;100938.03;;;12.28;63.86
71465;BME280;59274;49.874;9.154;2023-04-10T09:09:47;100933.00;;;12.30;62.29
71465;BME280;59274;49.874;9.154;2023-04-10T09:12:13;100933.16;;;12.40;61.70
71465;BME280;59274;49.874;9.154;2023-04-10T09:14:40;100925.09;;;12.47;63.04
71465;BME280;59274;49.874;9.154;2023-04-10T09:19:35;100908.16;;;12.61;62.40
71465;BME280;59274;49.874;9.154;2023-04-10T09:22:02;100903.50;;;12.62;61.94
71465;BME280;59274;49.874;9.154;2023-04-10T09:24:28;100894.97;;;12.67;60.76
71465;BME280;59274;49.874;9.154;2023-04-10T09:26:53;100893.28;;;12.85;60.10
71465;BME280;59274;49.874;9.154;2023-04-10T09:29:19;100889.44;;;12.89;60.16
71465;BME280;59274;49.874;9.154;2023-04-10T09:31:45;100887.34;;;12.79;59.46
71465;BME280;59274;49.874;9.154;2023-04-10T09:36:43;100878.22;;;13.28;60.88
71465;BME280;59274;49.874;9.154;2023-04-10T09:39:10;100879.53;;;13.45;60.29
71465;BME280;59274;49.874;9.154;2023-04-10T09:41:49;100875.03;;;13.63;59.87
71465;BME280;59274;49.874;9.154;2023-04-10T09:44:17;100872.00;;;13.75;60.26
71465;BME280;59274;49.874;9.154;2023-04-10T09:46:44;100869.75;;;13.88;59.42
71465;BME280;59274;49.874;9.154;2023-04-10T09:49:10;100868.59;;;13.89;58.17
71465;BME280;59274;49.874;9.154;2023-04-10T09:51:35;100860.97;;;13.64;56.97
71465;BME280;59274;49.874;9.154;2023-04-10T09:54:02;100851.81;;;13.87;57.86
71465;BME280;59274;49.874;9.154;2023-04-10T09:56:29;100848.09;;;14.13;57.82
71465;BME280;59274;49.874;9.154;2023-04-10T09:58:59;100848.59;;;14.32;57.99
71465;BME280;59274;49.874;9.154;2023-04-10T10:01:28;100835.81;;;14.47;58.30
71465;BME280;59274;49.874;9.154;2023-04-10T10:04:00;100837.47;;;14.69;54.54
71465;BME280;59274;49.874;9.154;2023-04-10T10:06:26;100831.25;;;14.86;56.35
71465;BME280;59274;49.874;9.154;2023-04-10T10:08:53;100825.44;;;15.02;54.68
71465;BME280;59274;49.874;9.154;2023-04-10T10:11:22;100815.66;;;14.94;52.90
71465;BME280;59274;49.874;9.154;2023-04-10T10:13:51;100823.47;;;14.99;52.44
71465;BME280;59274;49.874;9.154;2023-04-10T10:16:33;100812.19;;;15.22;52.55
71465;BME280;59274;49.874;9.154;2023-04-10T10:19:11;100814.91;;;15.22;53.23
71465;BME280;59274;49.874;9.154;2023-04-10T10:21:38;100792.66;;;15.23;50.86
71465;BME280;59274;49.874;9.154;2023-04-10T10:24:07;100807.50;;;15.29;51.55
71465;BME280;59274;49.874;9.154;2023-04-10T10:26:34;100790.31;;;15.40;52.18
71465;BME280;59274;49.874;9.154;2023-04-10T10:29:04;100791.09;;;15.47;52.49
71465;BME280;59274;49.874;9.154;2023-04-10T10:31:32;100791.13;;;15.61;51.73
71465;BME280;59274;49.874;9.154;2023-04-10T10:33:59;100783.66;;;15.41;50.22
71465;BME280;59274;49.874;9.154;2023-04-10T10:36:29;100780.13;;;15.44;49.97
71465;BME280;59274;49.874;9.154;2023-04-10T10:39:22;100773.88;;;15.29;49.88
71465;BME280;59274;49.874;9.154;2023-04-10T10:47:28;100761.38;;;15.32;51.42
71465;BME280;59274;49.874;9.154;2023-04-10T10:49:58;100763.72;;;15.40;50.97
71465;BME280;59274;49.874;9.154;2023-04-10T10:58:07;100771.13;;;15.86;50.15
71465;BME280;59274;49.874;9.154;2023-04-10T11:08:38;100754.16;;;16.30;49.50
71465;BME280;59274;49.874;9.154;2023-04-10T11:11:22;100743.16;;;16.37;46.70
71465;BME280;59274;49.874;9.154;2023-04-10T11:19:07;100725.31;;;16.77;45.11
71465;BME280;59274;49.874;9.154;2023-04-10T11:21:43;100725.94;;;16.99;44.18
71465;BME280;59274;49.874;9.154;2023-04-10T11:24:21;100725.09;;;17.09;43.51
71465;BME280;59274;49.874;9.154;2023-04-10T11:26:47;100716.00;;;17.19;43.07
71465;BME280;59274;49.874;9.154;2023-04-10T11:31:45;100701.72;;;17.35;43.21
71465;BME280;59274;49.874;9.154;2023-04-10T11:34:11;100696.22;;;17.38;40.61
71465;BME280;59274;49.874;9.154;2023-04-10T11:36:38;100697.19;;;17.58;41.39
71465;BME280;59274;49.874;9.154;2023-04-10T11:39:05;100695.84;;;17.36;40.81
71465;BME280;59274;49.874;9.154;2023-04-10T11:41:37;100695.22;;;17.59;41.29
71465;BME280;59274;49.874;9.154;2023-04-10T11:44:07;100696.69;;;18.05;40.30
71465;BME280;59274;49.874;9.154;2023-04-10T11:46:39;100686.63;;;18.25;39.16
71465;BME280;59274;49.874;9.154;2023-04-10T11:49:06;100684.34;;;18.47;38.64
71465;BME280;59274;49.874;9.154;2023-04-10T11:51:32;100669.66;;;18.60;39.03
71465;BME280;59274;49.874;9.154;2023-04-10T11:54:06;100661.41;;;18.84;36.47
71465;BME280;59274;49.874;9.154;2023-04-10T11:56:32;100651.66;;;18.79;37.21
71465;BME280;59274;49.874;9.154;2023-04-10T11:58:57;100635.56;;;19.01;38.29
71465;BME280;59274;49.874;9.154;2023-04-10T12:01:23;100635.16;;;18.52;37.90
71465;BME280;59274;49.874;9.154;2023-04-10T12:03:49;100641.75;;;18.31;36.50
71465;BME280;59274;49.874;9.154;2023-04-10T12:06:14;100634.44;;;18.75;36.42
71465;BME280;59274;49.874;9.154;2023-04-10T12:08:45;100632.81;;;18.51;35.97
71465;BME280;59274;49.874;9.154;2023-04-10T12:11:12;100625.06;;;18.42;36.33
71465;BME280;59274;49.874;9.154;2023-04-10T12:13:38;100619.34;;;18.33;36.72
71465;BME280;59274;49.874;9.154;2023-04-10T12:16:07;100619.81;;;18.51;36.53
71465;BME280;59274;49.874;9.154;2023-04-10T12:18:33;100620.31;;;18.96;37.08
71465;BME280;59274;49.874;9.154;2023-04-10T12:21:00;100621.25;;;19.09;35.48
71465;BME280;59274;49.874;9.154;2023-04-10T12:23:26;100619.44;;;18.99;38.01
71465;BME280;59274;49.874;9.154;2023-04-10T12:25:55;100613.50;;;18.81;37.76
71465;BME280;59274;49.874;9.154;2023-04-10T12:28:30;100614.47;;;18.91;36.64
71465;BME280;59274;49.874;9.154;2023-04-10T12:30:56;100621.38;;;18.79;36.26
71465;BME280;59274;49.874;9.154;2023-04-10T12:33:22;100607.34;;;19.16;34.95
71465;BME280;59274;49.874;9.154;2023-04-10T12:35:49;100606.56;;;19.16;36.48
71465;BME280;59274;49.874;9.154;2023-04-10T12:38:40;100610.06;;;18.97;37.18
71465;BME280;59274;49.874;9.154;2023-04-10T12:41:08;100608.03;;;18.77;36.08
71465;BME280;59274;49.874;9.154;2023-04-10T12:43:38;100602.81;;;18.83;35.98
71465;BME280;59274;49.874;9.154;2023-04-10T12:46:05;100589.41;;;18.85;35.20
71465;BME280;59274;49.874;9.154;2023-04-10T12:48:31;100592.66;;;18.80;34.67
71465;BME280;59274;49.874;9.154;2023-04-10T12:50:57;100581.69;;;19.00;34.64
71465;BME280;59274;49.874;9.154;2023-04-10T12:53:23;100584.69;;;19.09;35.05
71465;BME280;59274;49.874;9.154;2023-04-10T12:55:59;100579.31;;;19.02;36.14
71465;BME280;59274;49.874;9.154;2023-04-10T12:58:25;100576.97;;;19.00;35.13
71465;BME280;59274;49.874;9.154;2023-04-10T13:01:01;100576.06;;;19.07;33.91
71465;BME280;59274;49.874;9.154;2023-04-10T13:03:27;100568.16;;;19.09;34.74
71465;BME280;59274;49.874;9.154;2023-04-10T13:05:53;100563.66;;;19.38;33.72
71465;BME280;59274;49.874;9.154;2023-04-10T13:08:19;100562.50;;;19.75;34.47
71465;BME280;59274;49.874;9.154;2023-04-10T13:10:45;100557.75;;;19.60;32.79
71465;BME280;59274;49.874;9.154;2023-04-10T13:13:11;100552.56;;;19.62;32.45
71465;BME280;59274;49.874;9.154;2023-04-10T13:15:37;100550.94;;;19.64;36.21
71465;BME280;59274;49.874;9.154;2023-04-10T13:18:06;100552.13;;;19.43;35.12
71465;BME280;59274;49.874;9.154;2023-04-10T13:20:36;100549.16;;;19.14;34.42
71465;BME280;59274;49.874;9.154;2023-04-10T13:23:02;100538.84;;;19.18;34.60
71465;BME280;59274;49.874;9.154;2023-04-10T13:25:30;100537.25;;;19.61;33.27
71465;BME280;59274;49.874;9.154;2023-04-10T13:27:57;100537.38;;;19.89;34.03
71465;BME280;59274;49.874;9.154;2023-04-10T13:30:23;100522.75;;;19.92;33.61
71465;BME280;59274;49.874;9.154;2023-04-10T13:32:48;100525.50;;;19.92;32.48
71465;BME280;59274;49.874;9.154;2023-04-10T13:35:14;100523.56;;;20.09;29.84